Time;durP1;ratioP1;P1;durP2;ratioP2;P2;SDS_P1;SDS_P2;PMS_P1;PMS_P2;Temp;Humidity;BMP_temperature;BMP_pressure;BME280_temperature;BME280_humidity;BME280_pressure;Samples;Min_cycle;Max_cycle;Signal;HPM_P1;HPM_P2
2021/06/04 00:00:11;;;;;;;6.15;3.35;;;;;;;;;;5155020;27;20350;-66
2021/06/04 00:02:37;;;;;;;6.82;3.53;;;;;;;;;;5154256;27;20035;-66
2021/06/04 00:05:04;;;;;;;8.80;3.45;;;;;;;;;;5154376;27;20022;-66
2021/06/04 00:07:30;;;;;;;5.80;3.22;;;;;;;;;;5135898;27;20018;-66
2021/06/04 00:09:56;;;;;;;8.40;3.40;;;;;;;;;;5135878;27;20067;-66
2021/06/04 00:12:22;;;;;;;8.07;3.50;;;;;;;;;;5154255;27;20080;-66
2021/06/04 00:14:48;;;;;;;6.03;3.45;;;;;;;;;;5135703;27;20062;-66
2021/06/04 00:17:18;;;;;;;6.28;3.10;;;;;;;;;;5154329;27;20019;-66
2021/06/04 00:19:44;;;;;;;8.32;3.72;;;;;;;;;;5154306;27;20080;-66
2021/06/04 00:22:13;;;;;;;7.38;3.08;;;;;;;;;;5153141;27;20027;-66
2021/06/04 00:24:42;;;;;;;8.43;3.35;;;;;;;;;;5152936;27;20019;-66
2021/06/04 00:27:08;;;;;;;7.10;3.35;;;;;;;;;;5153681;27;20023;-66
2021/06/04 00:29:35;;;;;;;5.40;2.90;;;;;;;;;;5154340;27;20031;-66
2021/06/04 00:32:02;;;;;;;6.10;2.90;;;;;;;;;;5154332;27;20374;-66
2021/06/04 00:34:28;;;;;;;5.53;2.83;;;;;;;;;;5153751;27;20038;-66
2021/06/04 00:36:54;;;;;;;8.77;3.13;;;;;;;;;;5154331;27;20071;-66
2021/06/04 00:39:22;;;;;;;7.20;2.95;;;;;;;;;;5153945;27;20039;-66
2021/06/04 00:41:56;;;;;;;12.18;3.13;;;;;;;;;;5154200;27;20092;-66
2021/06/04 00:44:22;;;;;;;4.40;2.75;;;;;;;;;;5154062;27;20018;-66
2021/06/04 00:46:48;;;;;;;8.73;3.58;;;;;;;;;;5153928;27;20083;-66
2021/06/04 00:49:14;;;;;;;6.22;3.03;;;;;;;;;;5153952;27;20161;-66
2021/06/04 00:51:47;;;;;;;5.53;2.95;;;;;;;;;;5135472;27;20062;-66
2021/06/04 00:54:13;;;;;;;5.93;2.78;;;;;;;;;;5153929;27;20026;-66
2021/06/04 00:56:40;;;;;;;9.18;3.10;;;;;;;;;;5153930;27;20105;-66
2021/06/04 00:59:08;;;;;;;5.32;3.20;;;;;;;;;;5153719;27;20064;-66
2021/06/04 01:01:35;;;;;;;5.70;3.10;;;;;;;;;;5153869;27;20083;-66
2021/06/04 01:04:22;;;;;;;7.38;3.33;;;;;;;;;;5153743;27;20023;-66
2021/06/04 01:06:53;;;;;;;7.38;2.85;;;;;;;;;;5153798;27;20034;-66
2021/06/04 01:09:22;;;;;;;6.97;3.00;;;;;;;;;;5117636;27;20030;-66
2021/06/04 01:12:00;;;;;;;7.72;3.13;;;;;;;;;;5133522;27;20049;-66
2021/06/04 01:14:32;;;;;;;5.38;2.97;;;;;;;;;;5132824;27;20029;-66
2021/06/04 01:17:04;;;;;;;6.88;3.05;;;;;;;;;;5132667;27;20016;-67
2021/06/04 01:19:48;;;;;;;8.63;2.90;;;;;;;;;;5132651;27;20027;-66
2021/06/04 01:22:18;;;;;;;7.30;3.25;;;;;;;;;;5132488;27;20509;-66
2021/06/04 01:24:53;;;;;;;6.57;3.20;;;;;;;;;;5132569;27;20046;-66
2021/06/04 01:27:24;;;;;;;6.07;3.03;;;;;;;;;;5132635;27;20072;-66
2021/06/04 01:29:54;;;;;;;5.95;3.28;;;;;;;;;;5132778;27;20019;-67
2021/06/04 01:32:23;;;;;;;10.00;3.35;;;;;;;;;;5132453;27;20020;-66
2021/06/04 01:35:06;;;;;;;7.32;2.95;;;;;;;;;;5132432;27;20026;-66
2021/06/04 01:37:32;;;;;;;7.00;3.05;;;;;;;;;;5132608;27;20022;-66
2021/06/04 01:40:01;;;;;;;6.85;3.33;;;;;;;;;;5132440;27;20054;-66
2021/06/04 01:42:29;;;;;;;5.00;3.03;;;;;;;;;;5132396;27;20035;-66
2021/06/04 01:45:03;;;;;;;7.05;3.00;;;;;;;;;;5132387;27;20069;-66
2021/06/04 01:47:34;;;;;;;5.65;2.72;;;;;;;;;;5131669;27;20055;-66
2021/06/04 01:50:03;;;;;;;6.80;2.67;;;;;;;;;;5132263;27;20034;-66
2021/06/04 01:52:32;;;;;;;4.70;2.88;;;;;;;;;;5132438;27;20030;-66
2021/06/04 01:55:02;;;;;;;9.07;3.00;;;;;;;;;;5132351;27;20019;-66
2021/06/04 01:57:32;;;;;;;9.15;3.50;;;;;;;;;;5132420;27;20023;-66
2021/06/04 01:59:59;;;;;;;7.00;2.97;;;;;;;;;;5132386;27;20478;-66
2021/06/04 02:02:27;;;;;;;6.20;2.88;;;;;;;;;;5137874;27;20027;-67
2021/06/04 02:04:54;;;;;;;8.48;2.88;;;;;;;;;;5124883;27;20112;-66
2021/06/04 02:07:22;;;;;;;6.95;3.13;;;;;;;;;;5149612;27;20023;-66
2021/06/04 02:09:48;;;;;;;6.93;2.70;;;;;;;;;;5152705;27;20473;-66
2021/06/04 02:12:15;;;;;;;5.15;2.35;;;;;;;;;;5152905;27;20058;-66
2021/06/04 02:14:47;;;;;;;6.10;2.40;;;;;;;;;;5152810;27;20019;-66
2021/06/04 02:17:13;;;;;;;5.13;2.60;;;;;;;;;;5134272;27;20488;-66
2021/06/04 02:19:47;;;;;;;7.45;2.50;;;;;;;;;;5152676;27;20023;-66
2021/06/04 02:22:31;;;;;;;5.80;2.85;;;;;;;;;;5152418;27;20027;-66
2021/06/04 02:25:06;;;;;;;5.15;2.70;;;;;;;;;;5152686;27;20437;-66
2021/06/04 02:27:35;;;;;;;6.47;2.75;;;;;;;;;;5152641;27;20435;-66
2021/06/04 02:30:07;;;;;;;4.97;2.60;;;;;;;;;;5152597;27;20370;-66
2021/06/04 02:32:37;;;;;;;9.00;3.03;;;;;;;;;;5152693;27;20080;-66
2021/06/04 02:35:09;;;;;;;4.45;2.47;;;;;;;;;;5152656;27;20068;-67
2021/06/04 02:37:40;;;;;;;4.88;2.58;;;;;;;;;;5152368;27;20048;-66
2021/06/04 02:40:12;;;;;;;5.65;2.47;;;;;;;;;;5152558;27;20035;-66
2021/06/04 02:42:45;;;;;;;4.55;2.70;;;;;;;;;;5152484;27;20034;-66
2021/06/04 02:45:30;;;;;;;4.03;2.15;;;;;;;;;;5134040;27;20053;-66
2021/06/04 02:47:57;;;;;;;3.80;2.10;;;;;;;;;;5133860;27;20030;-66
2021/06/04 02:50:23;;;;;;;5.07;2.35;;;;;;;;;;5152523;27;20495;-66
2021/06/04 02:52:49;;;;;;;3.67;1.80;;;;;;;;;;5152478;27;20019;-66
2021/06/04 02:55:25;;;;;;;4.55;2.60;;;;;;;;;;5152293;27;20027;-66
2021/06/04 02:57:51;;;;;;;4.40;2.03;;;;;;;;;;5153768;27;20087;-66
2021/06/04 03:00:23;;;;;;;4.53;2.38;;;;;;;;;;5156236;27;20045;-66
2021/06/04 03:02:49;;;;;;;5.55;2.20;;;;;;;;;;5155970;27;20087;-66
2021/06/04 03:05:20;;;;;;;7.97;2.63;;;;;;;;;;5137288;27;20503;-66
2021/06/04 03:07:46;;;;;;;5.68;1.92;;;;;;;;;;5156061;27;20102;-66
2021/06/04 03:10:33;;;;;;;5.35;2.40;;;;;;;;;;5153273;27;20023;-65
2021/06/04 03:12:59;;;;;;;4.32;2.50;;;;;;;;;;5135907;27;20023;-66
2021/06/04 03:15:37;;;;;;;5.15;2.35;;;;;;;;;;5135506;27;20023;-66
2021/06/04 03:18:04;;;;;;;5.40;2.33;;;;;;;;;;5135163;27;20038;-66
2021/06/04 03:20:34;;;;;;;4.47;2.42;;;;;;;;;;5135199;27;20072;-66
2021/06/04 03:23:00;;;;;;;6.45;2.45;;;;;;;;;;5134864;27;20035;-66
2021/06/04 03:25:31;;;;;;;4.05;2.25;;;;;;;;;;5135111;27;20042;-66
2021/06/04 03:27:58;;;;;;;5.63;2.30;;;;;;;;;;5135039;27;20019;-66
2021/06/04 03:30:25;;;;;;;4.40;2.47;;;;;;;;;;5134984;27;20022;-66
2021/06/04 03:32:51;;;;;;;4.95;2.40;;;;;;;;;;5116310;27;20050;-66
2021/06/04 03:35:17;;;;;;;5.35;2.58;;;;;;;;;;5134730;27;20114;-66
2021/06/04 03:37:43;;;;;;;6.57;2.65;;;;;;;;;;5134701;27;20062;-66
2021/06/04 03:40:12;;;;;;;5.65;2.35;;;;;;;;;;5134967;27;20019;-66
2021/06/04 03:42:38;;;;;;;5.45;2.20;;;;;;;;;;5134505;27;20039;-66
2021/06/04 03:45:06;;;;;;;4.13;2.13;;;;;;;;;;5134737;27;20023;-66
2021/06/04 03:47:32;;;;;;;7.72;2.33;;;;;;;;;;5116095;27;20058;-66
2021/06/04 03:49:58;;;;;;;4.80;2.40;;;;;;;;;;5134275;27;20023;-66
2021/06/04 03:52:25;;;;;;;5.28;2.30;;;;;;;;;;5134151;27;20047;-66
2021/06/04 03:54:53;;;;;;;7.93;2.47;;;;;;;;;;5134299;27;20025;-66
2021/06/04 03:57:24;;;;;;;7.40;2.53;;;;;;;;;;5133905;27;20023;-66
2021/06/04 03:59:50;;;;;;;4.90;2.50;;;;;;;;;;5134323;27;20054;-66
2021/06/04 04:02:18;;;;;;;3.92;2.10;;;;;;;;;;5134098;27;20038;-66
2021/06/04 04:04:44;;;;;;;6.25;2.60;;;;;;;;;;5134222;27;20405;-66
2021/06/04 04:07:11;;;;;;;5.30;2.60;;;;;;;;;;5134185;27;20061;-66
2021/06/04 04:09:37;;;;;;;6.72;2.65;;;;;;;;;;5114895;27;20035;-66
2021/06/04 04:12:03;;;;;;;4.72;2.30;;;;;;;;;;5134081;27;20035;-66
2021/06/04 04:14:29;;;;;;;5.72;2.42;;;;;;;;;;5134012;27;20015;-66
2021/06/04 04:16:56;;;;;;;5.20;2.58;;;;;;;;;;5133884;27;20016;-66
2021/06/04 04:19:23;;;;;;;5.15;2.40;;;;;;;;;;5134228;27;20015;-66
2021/06/04 04:21:50;;;;;;;5.20;2.72;;;;;;;;;;5133880;27;20036;-66
2021/06/04 04:24:19;;;;;;;4.82;2.60;;;;;;;;;;5133667;27;20031;-66
2021/06/04 04:26:45;;;;;;;5.75;2.97;;;;;;;;;;5133718;27;20102;-66
2021/06/04 04:29:11;;;;;;;5.78;2.80;;;;;;;;;;5115109;27;20023;-65
2021/06/04 04:31:40;;;;;;;4.90;2.70;;;;;;;;;;5133972;27;20527;-66
2021/06/04 04:34:07;;;;;;;19.42;10.57;;;;;;;;;;5133537;27;20420;-65
2021/06/04 04:36:38;;;;;;;27.45;14.73;;;;;;;;;;5135118;27;20015;-63
2021/06/04 04:39:08;;;;;;;28.75;17.77;;;;;;;;;;5153045;27;20556;-65
2021/06/04 04:41:34;;;;;;;31.05;17.38;;;;;;;;;;5154318;27;20035;-64
2021/06/04 04:44:00;;;;;;;30.70;15.25;;;;;;;;;;5154568;27;20027;-65
2021/06/04 04:46:29;;;;;;;28.67;14.98;;;;;;;;;;5154337;27;20045;-65
2021/06/04 04:48:55;;;;;;;27.10;14.45;;;;;;;;;;5154283;27;20019;-65
2021/06/04 04:51:22;;;;;;;22.73;13.07;;;;;;;;;;5154227;27;20525;-65
2021/06/04 04:53:50;;;;;;;28.75;14.38;;;;;;;;;;5135752;27;20481;-65
2021/06/04 04:56:16;;;;;;;26.70;13.57;;;;;;;;;;5154310;27;20015;-65
2021/06/04 04:58:42;;;;;;;25.17;12.38;;;;;;;;;;5130742;27;20395;-65
2021/06/04 05:01:10;;;;;;;24.73;13.18;;;;;;;;;;5141377;27;20019;-65
2021/06/04 05:03:37;;;;;;;21.90;11.23;;;;;;;;;;5153134;27;20034;-64
2021/06/04 05:06:03;;;;;;;26.98;11.52;;;;;;;;;;5134583;27;20049;-64
2021/06/04 05:08:29;;;;;;;24.83;12.43;;;;;;;;;;5153307;27;20023;-62
2021/06/04 05:10:56;;;;;;;20.13;10.88;;;;;;;;;;5153695;27;20063;-65
2021/06/04 05:13:23;;;;;;;34.67;11.43;;;;;;;;;;5153684;27;20015;-63
2021/06/04 05:15:49;;;;;;;26.65;12.02;;;;;;;;;;5153853;27;20019;-66
2021/06/04 05:18:15;;;;;;;31.55;12.55;;;;;;;;;;5152240;27;20046;-66
2021/06/04 05:20:42;;;;;;;34.28;11.30;;;;;;;;;;5141567;27;20378;-66
2021/06/04 05:23:08;;;;;;;28.30;9.70;;;;;;;;;;5130792;27;20058;-66
2021/06/04 05:25:36;;;;;;;22.38;10.38;;;;;;;;;;5130842;27;20019;-66
2021/06/04 05:28:03;;;;;;;22.98;10.15;;;;;;;;;;5112475;27;20585;-66
2021/06/04 05:30:37;;;;;;;25.35;10.13;;;;;;;;;;5131348;27;20034;-66
2021/06/04 05:33:04;;;;;;;22.00;9.63;;;;;;;;;;5151121;27;20071;-66
2021/06/04 05:35:30;;;;;;;21.17;9.35;;;;;;;;;;5152797;27;20015;-66
2021/06/04 05:37:56;;;;;;;22.58;9.52;;;;;;;;;;5152510;27;20113;-67
2021/06/04 05:40:28;;;;;;;23.08;9.07;;;;;;;;;;5152776;27;20023;-66
2021/06/04 05:42:54;;;;;;;23.33;9.30;;;;;;;;;;5134276;27;20038;-66
2021/06/04 05:45:22;;;;;;;18.23;8.50;;;;;;;;;;5152843;27;20015;-65
2021/06/04 05:47:49;;;;;;;18.27;8.43;;;;;;;;;;5152835;27;20023;-67
2021/06/04 05:50:18;;;;;;;16.38;9.15;;;;;;;;;;5149227;27;20066;-65
2021/06/04 05:52:44;;;;;;;17.33;7.50;;;;;;;;;;5152704;27;20018;-65
2021/06/04 05:55:12;;;;;;;20.77;8.55;;;;;;;;;;5134017;27;20077;-65
2021/06/04 05:57:38;;;;;;;19.80;8.15;;;;;;;;;;5152700;27;20110;-66
2021/06/04 06:00:07;;;;;;;18.95;7.78;;;;;;;;;;5134507;27;20045;-65
2021/06/04 06:02:33;;;;;;;15.15;7.45;;;;;;;;;;5152802;27;20110;-66
2021/06/04 06:04:59;;;;;;;18.08;7.82;;;;;;;;;;5153128;27;20019;-65
2021/06/04 06:07:25;;;;;;;17.55;7.80;;;;;;;;;;5149533;27;20517;-65
2021/06/04 06:09:51;;;;;;;14.38;7.35;;;;;;;;;;5152813;27;20473;-65
2021/06/04 06:12:17;;;;;;;29.25;7.85;;;;;;;;;;5152879;27;20484;-65
2021/06/04 06:14:43;;;;;;;13.50;6.78;;;;;;;;;;5134292;27;20022;-65
2021/06/04 06:17:09;;;;;;;16.30;7.55;;;;;;;;;;5152736;27;20019;-65
2021/06/04 06:19:35;;;;;;;15.23;7.25;;;;;;;;;;5152531;27;20022;-66
2021/06/04 06:22:01;;;;;;;14.50;6.80;;;;;;;;;;5152102;27;20030;-66
2021/06/04 06:24:27;;;;;;;14.75;6.53;;;;;;;;;;5151816;27;20448;-68
2021/06/04 06:26:53;;;;;;;14.70;6.68;;;;;;;;;;5152148;27;20354;-67
2021/06/04 06:29:20;;;;;;;13.65;6.93;;;;;;;;;;5133770;27;20473;-66
2021/06/04 06:31:48;;;;;;;12.50;6.55;;;;;;;;;;5152582;27;20023;-67
2021/06/04 06:34:14;;;;;;;14.25;6.97;;;;;;;;;;5156751;27;20022;-65
2021/06/04 06:36:41;;;;;;;14.52;7.22;;;;;;;;;;5156865;27;20046;-66
2021/06/04 06:39:09;;;;;;;13.73;6.15;;;;;;;;;;5156462;27;20405;-67
2021/06/04 06:41:35;;;;;;;18.35;6.90;;;;;;;;;;5156482;27;20113;-67
2021/06/04 06:44:01;;;;;;;14.38;6.13;;;;;;;;;;5137702;27;20358;-68
2021/06/04 06:46:28;;;;;;;12.02;6.72;;;;;;;;;;5156313;27;20015;-66
2021/06/04 06:48:55;;;;;;;14.68;6.63;;;;;;;;;;5156325;27;20048;-67
2021/06/04 06:51:21;;;;;;;13.25;6.32;;;;;;;;;;5156219;27;20023;-67
2021/06/04 06:53:47;;;;;;;14.43;6.22;;;;;;;;;;5156278;27;20114;-67
2021/06/04 06:56:14;;;;;;;12.93;6.25;;;;;;;;;;5156378;27;20481;-68
2021/06/04 06:58:41;;;;;;;18.63;6.28;;;;;;;;;;5156262;27;20019;-66
2021/06/04 07:01:07;;;;;;;14.13;5.95;;;;;;;;;;5155997;27;20163;-67
2021/06/04 07:03:34;;;;;;;10.82;5.20;;;;;;;;;;5155795;27;20074;-68
2021/06/04 07:06:02;;;;;;;12.40;5.55;;;;;;;;;;5155958;27;20033;-67
2021/06/04 07:08:28;;;;;;;11.48;5.13;;;;;;;;;;5156108;27;20026;-66
2021/06/04 07:10:55;;;;;;;12.45;5.35;;;;;;;;;;5156081;27;20018;-68
2021/06/04 07:13:27;;;;;;;11.02;5.32;;;;;;;;;;5156025;27;20051;-66
2021/06/04 07:15:55;;;;;;;8.60;4.88;;;;;;;;;;5155884;27;20050;-67
2021/06/04 07:18:21;;;;;;;9.68;5.25;;;;;;;;;;5156090;27;20026;-65
2021/06/04 07:20:48;;;;;;;10.75;4.80;;;;;;;;;;5155980;27;20045;-66
2021/06/04 07:23:16;;;;;;;10.07;4.75;;;;;;;;;;5155855;27;20117;-65
2021/06/04 07:25:44;;;;;;;9.60;4.63;;;;;;;;;;5156075;27;20019;-66
2021/06/04 07:28:11;;;;;;;9.05;4.30;;;;;;;;;;5155767;27;20027;-66
2021/06/04 07:30:39;;;;;;;10.52;4.63;;;;;;;;;;5153076;27;20021;-68
2021/06/04 07:33:07;;;;;;;10.90;4.65;;;;;;;;;;5152560;27;20478;-66
2021/06/04 07:35:34;;;;;;;10.10;4.25;;;;;;;;;;5157450;27;20057;-66
2021/06/04 07:38:00;;;;;;;9.93;4.00;;;;;;;;;;5137708;27;20050;-68
2021/06/04 07:40:29;;;;;;;10.32;4.50;;;;;;;;;;5134817;27;20435;-66
2021/06/04 07:42:56;;;;;;;7.90;4.50;;;;;;;;;;5134729;27;20077;-65
2021/06/04 07:45:24;;;;;;;8.95;4.57;;;;;;;;;;5132214;27;20046;-65
2021/06/04 07:47:50;;;;;;;11.52;4.78;;;;;;;;;;5133221;27;20454;-66
2021/06/04 07:50:17;;;;;;;7.22;3.95;;;;;;;;;;5127196;27;20019;-66
2021/06/04 07:52:43;;;;;;;7.15;3.75;;;;;;;;;;5113698;28;20106;-66
2021/06/04 07:55:10;;;;;;;7.38;3.78;;;;;;;;;;5113850;28;20073;-66
2021/06/04 07:57:37;;;;;;;7.60;4.00;;;;;;;;;;5114850;27;20023;-66
2021/06/04 08:00:07;;;;;;;9.13;4.22;;;;;;;;;;5115820;27;20032;-66
2021/06/04 08:02:33;;;;;;;7.88;3.70;;;;;;;;;;5112165;28;20036;-66
2021/06/04 08:05:00;;;;;;;9.77;4.05;;;;;;;;;;5113712;28;20023;-66
2021/06/04 08:07:26;;;;;;;11.45;4.40;;;;;;;;;;5113740;28;20016;-66
2021/06/04 08:09:52;;;;;;;7.60;3.55;;;;;;;;;;5113502;28;20489;-67
2021/06/04 08:12:19;;;;;;;5.70;3.22;;;;;;;;;;5113491;28;20031;-68
2021/06/04 08:14:45;;;;;;;14.52;3.58;;;;;;;;;;5130599;27;20508;-63
2021/06/04 08:17:11;;;;;;;10.13;3.63;;;;;;;;;;5133624;27;20448;-62
2021/06/04 08:19:37;;;;;;;9.02;3.42;;;;;;;;;;5133808;27;20011;-63
2021/06/04 08:22:06;;;;;;;8.30;3.45;;;;;;;;;;5133478;27;20042;-64
2021/06/04 08:24:33;;;;;;;11.50;3.83;;;;;;;;;;5133623;27;20026;-62
2021/06/04 08:27:01;;;;;;;9.57;3.30;;;;;;;;;;5133475;27;20019;-59
2021/06/04 08:29:30;;;;;;;6.25;3.22;;;;;;;;;;5133671;27;20470;-59
2021/06/04 08:31:56;;;;;;;10.15;3.42;;;;;;;;;;5132940;27;20049;-59
2021/06/04 08:34:22;;;;;;;7.85;3.60;;;;;;;;;;5133509;27;20023;-66
2021/06/04 08:36:49;;;;;;;8.63;3.38;;;;;;;;;;5133717;27;20706;-65
2021/06/04 08:39:17;;;;;;;13.82;3.80;;;;;;;;;;5149532;27;20115;-66
2021/06/04 08:42:02;;;;;;;9.93;3.33;;;;;;;;;;5135554;27;20082;-66
2021/06/04 08:44:52;;;;;;;7.35;3.53;;;;;;;;;;5135599;27;20425;-62
2021/06/04 08:47:20;;;;;;;9.25;3.50;;;;;;;;;;5154094;27;20472;-65
2021/06/04 08:50:01;;;;;;;8.98;3.70;;;;;;;;;;5153862;27;20023;-64
2021/06/04 08:52:40;;;;;;;7.80;3.03;;;;;;;;;;5153793;27;20038;-62
2021/06/04 08:55:13;;;;;;;6.43;3.72;;;;;;;;;;5135346;27;20019;-62
2021/06/04 08:57:53;;;;;;;6.70;3.42;;;;;;;;;;5135487;27;20524;-62
2021/06/04 09:00:22;;;;;;;6.38;3.20;;;;;;;;;;5154183;27;20031;-66
2021/06/04 09:02:50;;;;;;;9.40;3.25;;;;;;;;;;5135113;27;20042;-65
2021/06/04 09:05:21;;;;;;;7.90;3.30;;;;;;;;;;5154067;27;20540;-65
2021/06/04 09:07:49;;;;;;;8.50;3.30;;;;;;;;;;5154003;27;20045;-64
2021/06/04 09:10:23;;;;;;;7.47;2.97;;;;;;;;;;5153923;27;20042;-62
2021/06/04 09:12:54;;;;;;;7.63;3.38;;;;;;;;;;5154271;27;20019;-64
2021/06/04 09:15:23;;;;;;;6.72;3.45;;;;;;;;;;5153653;27;20018;-65
2021/06/04 09:17:52;;;;;;;6.93;3.47;;;;;;;;;;5153676;27;20031;-66
2021/06/04 09:20:30;;;;;;;8.48;2.95;;;;;;;;;;5153612;27;20027;-64
2021/06/04 09:22:58;;;;;;;5.85;2.97;;;;;;;;;;5153520;27;20031;-65
2021/06/04 09:25:25;;;;;;;10.95;2.92;;;;;;;;;;5153800;27;20018;-66
2021/06/04 09:28:10;;;;;;;7.05;3.50;;;;;;;;;;5135183;27;20030;-63
2021/06/04 09:30:36;;;;;;;8.43;2.78;;;;;;;;;;5153628;27;20493;-64
2021/06/04 09:33:20;;;;;;;5.30;2.63;;;;;;;;;;5153466;27;20030;-64
2021/06/04 09:36:05;;;;;;;6.13;3.13;;;;;;;;;;5153420;27;20071;-66
2021/06/04 09:38:31;;;;;;;5.72;3.22;;;;;;;;;;5153011;27;20046;-64
2021/06/04 09:40:58;;;;;;;5.95;2.70;;;;;;;;;;5134770;27;20022;-64
2021/06/04 09:43:32;;;;;;;5.32;2.72;;;;;;;;;;5153322;27;20050;-65
2021/06/04 09:46:00;;;;;;;5.28;2.78;;;;;;;;;;5153550;27;20023;-65
2021/06/04 09:48:52;;;;;;;5.65;2.65;;;;;;;;;;5153330;27;20061;-66
2021/06/04 09:51:22;;;;;;;5.87;2.60;;;;;;;;;;5153320;27;20015;-64
2021/06/04 09:53:48;;;;;;;5.93;3.00;;;;;;;;;;5153210;27;20049;-66
2021/06/04 09:56:33;;;;;;;5.03;2.53;;;;;;;;;;5153176;27;20037;-65
2021/06/04 09:59:01;;;;;;;5.57;2.58;;;;;;;;;;5153145;27;20477;-65
2021/06/04 10:01:31;;;;;;;7.70;3.30;;;;;;;;;;5153041;27;20377;-66
2021/06/04 10:04:04;;;;;;;7.72;2.70;;;;;;;;;;5152808;27;20018;-66
2021/06/04 10:06:33;;;;;;;5.70;2.97;;;;;;;;;;5152725;27;20026;-64
2021/06/04 10:09:01;;;;;;;5.53;2.65;;;;;;;;;;5152274;27;20026;-71
2021/06/04 10:11:54;;;;;;;5.07;2.33;;;;;;;;;;5152534;27;20019;-62
2021/06/04 10:14:40;;;;;;;5.50;2.50;;;;;;;;;;5148158;27;20035;-67
2021/06/04 10:19:57;;;;;;;7.10;3.00;;;;;;;;;;5153125;27;20054;-64
2021/06/04 10:22:33;;;;;;;5.97;2.95;;;;;;;;;;5152837;27;20077;-64
2021/06/04 10:25:02;;;;;;;4.22;2.60;;;;;;;;;;5152938;27;20054;-65
2021/06/04 10:27:28;;;;;;;4.78;2.33;;;;;;;;;;5153504;27;20018;-59
2021/06/04 10:29:57;;;;;;;6.85;2.75;;;;;;;;;;5153472;27;20019;-60
2021/06/04 10:32:23;;;;;;;5.82;2.65;;;;;;;;;;5149850;27;20023;-65
2021/06/04 10:34:49;;;;;;;5.55;3.00;;;;;;;;;;5152425;27;20799;-67
2021/06/04 10:37:20;;;;;;;5.03;2.53;;;;;;;;;;5152503;27;20481;-66
2021/06/04 10:39:51;;;;;;;6.70;2.92;;;;;;;;;;5149038;27;20090;-67
2021/06/04 10:42:20;;;;;;;3.83;2.15;;;;;;;;;;5152014;27;20106;-67
2021/06/04 10:45:05;;;;;;;7.15;3.13;;;;;;;;;;5133904;27;20022;-66
2021/06/04 10:47:41;;;;;;;4.97;2.60;;;;;;;;;;5148898;27;20054;-66
2021/06/04 10:50:15;;;;;;;5.45;2.30;;;;;;;;;;5152671;27;20477;-67
2021/06/04 10:52:41;;;;;;;7.72;2.78;;;;;;;;;;5152864;27;20015;-63
2021/06/04 10:55:11;;;;;;;5.80;2.88;;;;;;;;;;5134485;27;20038;-65
2021/06/04 10:57:47;;;;;;;4.82;2.53;;;;;;;;;;5152421;27;20495;-65
2021/06/04 11:00:16;;;;;;;6.25;2.50;;;;;;;;;;5152432;27;20074;-66
2021/06/04 11:03:00;;;;;;;6.10;2.60;;;;;;;;;;5133780;27;20059;-62
2021/06/04 11:05:26;;;;;;;9.68;2.88;;;;;;;;;;5153042;27;20037;-63
2021/06/04 11:07:55;;;;;;;15.55;3.05;;;;;;;;;;5152576;27;20355;-65
2021/06/04 11:10:28;;;;;;;8.23;2.60;;;;;;;;;;5152396;27;20047;-62
2021/06/04 11:12:54;;;;;;;9.77;2.80;;;;;;;;;;5134386;27;20106;-63
2021/06/04 11:15:39;;;;;;;8.93;2.60;;;;;;;;;;5130253;28;20161;-63
2021/06/04 11:18:14;;;;;;;4.68;2.53;;;;;;;;;;5130992;27;20497;-63
2021/06/04 11:20:42;;;;;;;6.35;2.35;;;;;;;;;;5135272;27;20026;-62
2021/06/04 11:23:13;;;;;;;9.98;2.65;;;;;;;;;;5135097;27;20632;-63
2021/06/04 11:25:45;;;;;;;8.43;2.72;;;;;;;;;;5135182;27;20051;-63
2021/06/04 11:28:30;;;;;;;4.82;2.20;;;;;;;;;;5134899;27;20378;-63
2021/06/04 11:30:57;;;;;;;10.82;2.42;;;;;;;;;;5148198;27;20030;-62
2021/06/04 11:33:26;;;;;;;11.07;2.47;;;;;;;;;;5155711;27;20027;-61
2021/06/04 11:35:54;;;;;;;6.28;2.30;;;;;;;;;;5155727;27;20106;-62
2021/06/04 11:38:29;;;;;;;12.13;2.70;;;;;;;;;;5151932;27;20456;-62
2021/06/04 11:40:57;;;;;;;11.38;3.15;;;;;;;;;;5137741;27;20075;-62
2021/06/04 11:43:29;;;;;;;7.82;2.70;;;;;;;;;;5134592;27;20085;-66
2021/06/04 11:46:14;;;;;;;7.85;2.40;;;;;;;;;;5134623;27;20099;-65
2021/06/04 11:48:41;;;;;;;5.72;2.33;;;;;;;;;;5139657;27;20035;-65
2021/06/04 11:51:20;;;;;;;6.30;2.45;;;;;;;;;;5139734;27;20026;-66
2021/06/04 11:53:48;;;;;;;13.43;2.90;;;;;;;;;;5151181;27;20026;-65
2021/06/04 11:56:32;;;;;;;5.95;2.30;;;;;;;;;;5154550;27;20023;-65
2021/06/04 11:58:58;;;;;;;6.20;2.40;;;;;;;;;;5136952;27;20104;-64
2021/06/04 12:01:24;;;;;;;5.50;2.30;;;;;;;;;;5134223;27;20094;-64
2021/06/04 12:03:50;;;;;;;10.30;2.20;;;;;;;;;;5134699;27;20485;-62
2021/06/04 12:06:22;;;;;;;5.68;2.35;;;;;;;;;;5145728;27;20106;-65
2021/06/04 12:08:49;;;;;;;7.20;2.30;;;;;;;;;;5151044;27;20060;-64
2021/06/04 12:11:35;;;;;;;6.72;2.60;;;;;;;;;;5155354;27;20019;-63
2021/06/04 12:14:04;;;;;;;6.85;2.38;;;;;;;;;;5155179;27;20027;-64
2021/06/04 12:16:30;;;;;;;6.50;2.20;;;;;;;;;;5154823;27;20473;-65
2021/06/04 12:19:24;;;;;;;5.70;2.63;;;;;;;;;;5154702;27;20038;-64
2021/06/04 12:21:51;;;;;;;6.63;2.70;;;;;;;;;;5154222;27;20591;-63
2021/06/04 12:24:20;;;;;;;8.57;2.10;;;;;;;;;;5154321;27;20470;-63
2021/06/04 12:26:55;;;;;;;7.63;1.92;;;;;;;;;;5155086;27;20107;-61
2021/06/04 12:29:24;;;;;;;8.98;2.20;;;;;;;;;;5155231;27;20634;-61
2021/06/04 12:31:53;;;;;;;6.13;2.28;;;;;;;;;;5154281;27;20037;-61
2021/06/04 12:34:38;;;;;;;5.68;1.92;;;;;;;;;;5154991;27;20054;-67
2021/06/04 12:37:10;;;;;;;6.05;2.05;;;;;;;;;;5155142;27;20075;-61
2021/06/04 12:39:44;;;;;;;5.55;2.20;;;;;;;;;;5154818;27;20051;-62
2021/06/04 12:42:32;;;;;;;8.27;1.98;;;;;;;;;;5154876;27;20114;-61
2021/06/04 12:45:06;;;;;;;11.02;3.00;;;;;;;;;;5154624;27;20098;-61
2021/06/04 12:47:38;;;;;;;7.78;3.28;;;;;;;;;;5136087;27;20068;-61
2021/06/04 12:50:14;;;;;;;14.20;6.03;;;;;;;;;;5154865;27;20023;-60
2021/06/04 12:52:40;;;;;;;26.38;9.75;;;;;;;;;;5154190;27;20052;-60
2021/06/04 12:55:22;;;;;;;26.00;9.80;;;;;;;;;;5150704;27;20023;-62
2021/06/04 12:57:48;;;;;;;25.10;8.68;;;;;;;;;;5154172;27;20019;-60
2021/06/04 13:00:17;;;;;;;18.40;7.30;;;;;;;;;;5154297;27;20074;-61
2021/06/04 13:02:44;;;;;;;19.67;6.72;;;;;;;;;;5147046;27;20519;-69
2021/06/04 13:05:10;;;;;;;14.73;5.82;;;;;;;;;;5133504;27;20063;-65
2021/06/04 13:07:37;;;;;;;19.73;6.72;;;;;;;;;;5133344;27;20046;-64
2021/06/04 13:10:23;;;;;;;15.20;5.72;;;;;;;;;;5133151;27;20019;-65
2021/06/04 13:12:53;;;;;;;11.52;4.95;;;;;;;;;;5127828;27;20050;-65
2021/06/04 13:15:19;;;;;;;16.00;5.13;;;;;;;;;;5153416;27;20365;-64
2021/06/04 13:17:56;;;;;;;13.45;4.80;;;;;;;;;;5151672;27;20078;-64
2021/06/04 13:20:25;;;;;;;15.63;4.80;;;;;;;;;;5146356;27;20022;-62
2021/06/04 13:23:05;;;;;;;12.18;4.22;;;;;;;;;;5139244;27;20027;-62
2021/06/04 13:25:31;;;;;;;11.07;3.78;;;;;;;;;;5120322;27;20019;-62
2021/06/04 13:28:06;;;;;;;16.15;4.13;;;;;;;;;;5132953;27;20545;-65
2021/06/04 13:30:33;;;;;;;10.73;3.67;;;;;;;;;;5134601;27;20037;-64
2021/06/04 13:33:00;;;;;;;9.73;3.70;;;;;;;;;;5153126;27;20030;-59
2021/06/04 13:35:37;;;;;;;12.63;3.35;;;;;;;;;;5149358;27;20027;-61
2021/06/04 13:38:10;;;;;;;11.10;3.10;;;;;;;;;;5152983;27;20115;-61
2021/06/04 13:40:37;;;;;;;9.15;3.72;;;;;;;;;;5152977;27;20381;-60
2021/06/04 13:43:08;;;;;;;11.77;3.60;;;;;;;;;;5151640;27;20160;-61
2021/06/04 13:45:38;;;;;;;11.10;3.28;;;;;;;;;;5153456;27;20063;-62
2021/06/04 13:48:07;;;;;;;21.85;4.35;;;;;;;;;;5150719;27;20107;-62
2021/06/04 13:50:36;;;;;;;11.20;3.17;;;;;;;;;;5150822;27;20022;-62
2021/06/04 13:53:02;;;;;;;10.20;2.90;;;;;;;;;;5151633;27;20014;-62
2021/06/04 13:55:29;;;;;;;8.45;2.63;;;;;;;;;;5151395;27;20011;-62
2021/06/04 13:58:13;;;;;;;7.32;2.60;;;;;;;;;;5151091;27;20052;-62
2021/06/04 14:00:39;;;;;;;8.23;3.22;;;;;;;;;;5152287;27;20031;-62
2021/06/04 14:03:17;;;;;;;6.68;2.50;;;;;;;;;;5151883;27;20037;-62
2021/06/04 14:05:54;;;;;;;5.75;2.53;;;;;;;;;;5152325;27;20011;-63
2021/06/04 14:08:22;;;;;;;4.15;2.22;;;;;;;;;;5152363;27;20023;-63
2021/06/04 14:10:48;;;;;;;6.45;2.53;;;;;;;;;;5152299;27;20028;-63
2021/06/04 14:13:16;;;;;;;6.53;2.35;;;;;;;;;;5134093;27;20457;-62
2021/06/04 14:15:42;;;;;;;7.10;2.47;;;;;;;;;;5152756;27;20027;-62
2021/06/04 14:18:26;;;;;;;6.97;2.45;;;;;;;;;;5143058;27;20023;-63
2021/06/04 14:20:52;;;;;;;6.43;2.33;;;;;;;;;;5131990;28;20072;-63
2021/06/04 14:23:23;;;;;;;7.55;3.08;;;;;;;;;;5131946;28;20031;-63
2021/06/04 14:25:50;;;;;;;3.88;2.05;;;;;;;;;;5131598;28;20099;-63
2021/06/04 14:28:17;;;;;;;6.07;2.60;;;;;;;;;;5113589;28;20027;-63
2021/06/04 14:30:45;;;;;;;4.65;2.00;;;;;;;;;;5131896;28;20102;-63
2021/06/04 14:33:14;;;;;;;5.22;2.20;;;;;;;;;;5131989;28;20011;-63
2021/06/04 14:35:49;;;;;;;5.20;2.10;;;;;;;;;;5132225;28;20043;-63
2021/06/04 14:38:27;;;;;;;5.03;2.38;;;;;;;;;;5131663;28;20047;-63
2021/06/04 14:40:54;;;;;;;4.53;2.05;;;;;;;;;;5113325;28;20019;-63
2021/06/04 14:43:20;;;;;;;8.15;2.70;;;;;;;;;;5131446;28;20080;-63
2021/06/04 14:45:46;;;;;;;7.53;2.63;;;;;;;;;;5131891;28;20098;-63
2021/06/04 14:48:16;;;;;;;4.72;2.05;;;;;;;;;;5131733;28;20080;-63
2021/06/04 14:50:42;;;;;;;5.88;2.10;;;;;;;;;;5131453;28;20015;-63
2021/06/04 14:53:08;;;;;;;6.38;2.13;;;;;;;;;;5131940;27;20080;-63
2021/06/04 14:55:34;;;;;;;6.28;2.47;;;;;;;;;;5136126;27;20016;-63